The Farmers Guide 72-hour weather forecast

Enter Postcode:

Clear

(00:00)

2.8°C

IP2 0SS

Wind Soil
Date Time Weather Temp Rain Humid Cloud Press (mph) Temp Moist
03/03 00:00 2.8°C 0.0mm 73% 3% 1014mb 16sww (242 degrees) 4.1°C 0.3%
03:00 3.9°C 0.0mm 77% 75% 1014mb 14sw (235 degrees) 3.8°C 0.3%
06:00 3.7°C 0.6mm 89% 88% 1012mb 8sw (230 degrees) 3.8°C 0.3%
09:00 4.2°C 1.7mm 90% 100% 1012mb 8w (276 degrees) 3.8°C 0.3%
12:00 6.5°C 2.3mm 69% 100% 1013mb 15w (264 degrees) 4.5°C 0.3%
15:00 6.7°C 0.3mm 57% 81% 1015mb 20w (267 degrees) 5.3°C 0.3%
18:00 3.5°C 0.3mm 67% 60% 1016mb 14w (262 degrees) 5.0°C 0.3%
21:00 3.2°C 0.0mm 70% 23% 1018mb 18sww (249 degrees) 4.3°C 0.3%
04/03 00:00 2.6°C 0.0mm 77% 27% 1019mb 17w (260 degrees) 3.9°C 0.3%
03:00 2.4°C 0.0mm 77% 66% 1020mb 18w (265 degrees) 3.4°C 0.3%
06:00 2.0°C 0.0mm 79% 33% 1021mb 19w (265 degrees) 3.0°C 0.3%
09:00 4.9°C 0.0mm 72% 0% 1024mb 22nww (292 degrees) 3.0°C 0.3%
12:00 8.4°C 0.0mm 48% 0% 1026mb 24nw (316 degrees) 4.4°C 0.3%
15:00 8.7°C 0.0mm 46% 0% 1029mb 20nnw (330 degrees) 5.6°C 0.3%
18:00 4.8°C 0.0mm 64% 0% 1032mb 9nw (322 degrees) 5.6°C 0.3%
21:00 3.6°C 0.0mm 78% 0% 1035mb 12nw (314 degrees) 4.9°C 0.3%
05/03 00:00 2.4°C 0.0mm 86% 0% 1036mb 11nw (311 degrees) 4.2°C 0.3%
03:00 1.5°C 0.0mm 90% 0% 1037mb 10nw (312 degrees) 3.4°C 0.3%
06:00 1.0°C 0.0mm 91% 15% 1038mb 8nw (311 degrees) 3.1°C 0.3%
09:00 4.5°C 0.0mm 76% 52% 1039mb 8nw (309 degrees) 3.0°C 0.3%
12:00 8.7°C 0.0mm 60% 33% 1038mb 6w (280 degrees) 4.4°C 0.3%
15:00 10.1°C 0.0mm 59% 13% 1037mb 8w (271 degrees) 6.2°C 0.3%
18:00 6.4°C 0.0mm 81% 8% 1037mb 7sww (240 degrees) 6.4°C 0.3%
21:00 7.4°C 0.0mm 82% 97% 1037mb 9sww (258 degrees) 6.4°C 0.3%
The Farmers Guide weather forecast is a free service for users of this website.
 
We now carry forecasts based on postcodes. Just enter your postcode and the weather page will display the forecast for the following 72 hours, broken down into three-hour intervals.
 
The forecast data provided for each three-hour period includes: a general graphic showing the likely weather conditions; average temperatures for the period; cloud cover; barometric pressure; wind speed and direction; humidity; and rainfall.
 
An indication of the likely soil temperature and soil moisture will also be displayed for most postcodes, although this data is not available for every area.
 
We hope you will find this service useful and would welcome any feedback from you.
 
 

Search

Read our full February issue here FREE!

Advertisments